sensor_id;sensor_type;location;lat;lon;timestamp;P1;durP1;ratioP1;P2;durP2;ratioP2
17658;SDS011;8948;51.534;8.262;2022-11-14T00:01:43;10.43;;;4.30;;
17658;SDS011;8948;51.534;8.262;2022-11-14T00:06:43;7.83;;;3.20;;
17658;SDS011;8948;51.534;8.262;2022-11-14T00:11:44;6.10;;;3.60;;
17658;SDS011;8948;51.534;8.262;2022-11-14T00:16:45;5.67;;;3.67;;
17658;SDS011;8948;51.534;8.262;2022-11-14T00:21:45;7.97;;;4.10;;
17658;SDS011;8948;51.534;8.262;2022-11-14T00:26:46;4.60;;;3.27;;
17658;SDS011;8948;51.534;8.262;2022-11-14T00:31:46;4.43;;;2.90;;
17658;SDS011;8948;51.534;8.262;2022-11-14T00:36:47;4.77;;;3.50;;
17658;SDS011;8948;51.534;8.262;2022-11-14T00:41:48;5.27;;;3.63;;
17658;SDS011;8948;51.534;8.262;2022-11-14T00:46:48;6.13;;;3.57;;
17658;SDS011;8948;51.534;8.262;2022-11-14T00:51:49;5.67;;;3.30;;
17658;SDS011;8948;51.534;8.262;2022-11-14T00:56:49;5.80;;;3.27;;
17658;SDS011;8948;51.534;8.262;2022-11-14T01:01:50;5.53;;;3.27;;
17658;SDS011;8948;51.534;8.262;2022-11-14T01:06:50;3.97;;;3.13;;
17658;SDS011;8948;51.534;8.262;2022-11-14T01:11:51;7.00;;;4.20;;
17658;SDS011;8948;51.534;8.262;2022-11-14T01:16:51;5.90;;;4.00;;
17658;SDS011;8948;51.534;8.262;2022-11-14T01:21:52;4.80;;;3.37;;
17658;SDS011;8948;51.534;8.262;2022-11-14T01:26:55;4.30;;;3.30;;
17658;SDS011;8948;51.534;8.262;2022-11-14T01:31:56;5.83;;;3.50;;
17658;SDS011;8948;51.534;8.262;2022-11-14T01:36:57;4.77;;;3.37;;
17658;SDS011;8948;51.534;8.262;2022-11-14T01:41:57;5.10;;;3.60;;
17658;SDS011;8948;51.534;8.262;2022-11-14T01:46:58;6.77;;;4.00;;
17658;SDS011;8948;51.534;8.262;2022-11-14T01:52:01;5.53;;;4.00;;
17658;SDS011;8948;51.534;8.262;2022-11-14T02:02:31;6.10;;;3.73;;
17658;SDS011;8948;51.534;8.262;2022-11-14T02:07:32;6.00;;;4.13;;
17658;SDS011;8948;51.534;8.262;2022-11-14T02:12:36;6.10;;;3.80;;
17658;SDS011;8948;51.534;8.262;2022-11-14T02:17:37;6.80;;;4.37;;
17658;SDS011;8948;51.534;8.262;2022-11-14T02:22:39;5.80;;;4.00;;
17658;SDS011;8948;51.534;8.262;2022-11-14T02:27:41;5.87;;;4.10;;
17658;SDS011;8948;51.534;8.262;2022-11-14T02:32:42;6.13;;;4.27;;
17658;SDS011;8948;51.534;8.262;2022-11-14T02:37:43;7.03;;;4.07;;
17658;SDS011;8948;51.534;8.262;2022-11-14T02:42:44;5.90;;;3.77;;
17658;SDS011;8948;51.534;8.262;2022-11-14T02:47:44;9.13;;;4.07;;
17658;SDS011;8948;51.534;8.262;2022-11-14T02:52:45;6.87;;;3.60;;
17658;SDS011;8948;51.534;8.262;2022-11-14T02:57:46;7.83;;;3.87;;
17658;SDS011;8948;51.534;8.262;2022-11-14T03:02:46;6.10;;;4.00;;
17658;SDS011;8948;51.534;8.262;2022-11-14T03:07:47;6.63;;;4.33;;
17658;SDS011;8948;51.534;8.262;2022-11-14T03:12:51;6.20;;;4.13;;
17658;SDS011;8948;51.534;8.262;2022-11-14T03:17:55;5.00;;;3.63;;
17658;SDS011;8948;51.534;8.262;2022-11-14T03:22:56;6.17;;;3.80;;
17658;SDS011;8948;51.534;8.262;2022-11-14T03:27:56;6.43;;;4.20;;
17658;SDS011;8948;51.534;8.262;2022-11-14T03:32:57;6.50;;;4.20;;
17658;SDS011;8948;51.534;8.262;2022-11-14T03:37:57;5.87;;;3.73;;
17658;SDS011;8948;51.534;8.262;2022-11-14T03:42:58;6.73;;;3.70;;
17658;SDS011;8948;51.534;8.262;2022-11-14T03:47:58;7.80;;;4.57;;
17658;SDS011;8948;51.534;8.262;2022-11-14T03:52:59;7.57;;;4.73;;
17658;SDS011;8948;51.534;8.262;2022-11-14T03:57:59;7.20;;;4.40;;
17658;SDS011;8948;51.534;8.262;2022-11-14T04:03:00;6.00;;;3.93;;
17658;SDS011;8948;51.534;8.262;2022-11-14T04:08:03;5.53;;;4.20;;
17658;SDS011;8948;51.534;8.262;2022-11-14T04:13:04;5.67;;;4.17;;
17658;SDS011;8948;51.534;8.262;2022-11-14T04:18:05;10.33;;;5.37;;
17658;SDS011;8948;51.534;8.262;2022-11-14T04:23:05;9.47;;;5.53;;
17658;SDS011;8948;51.534;8.262;2022-11-14T04:28:06;8.07;;;5.17;;
17658;SDS011;8948;51.534;8.262;2022-11-14T04:33:06;8.20;;;5.33;;
17658;SDS011;8948;51.534;8.262;2022-11-14T04:38:08;7.67;;;4.53;;
17658;SDS011;8948;51.534;8.262;2022-11-14T04:43:09;8.00;;;5.20;;
17658;SDS011;8948;51.534;8.262;2022-11-14T04:48:09;8.30;;;5.20;;
17658;SDS011;8948;51.534;8.262;2022-11-14T04:53:10;7.63;;;5.17;;
17658;SDS011;8948;51.534;8.262;2022-11-14T04:58:10;11.40;;;4.77;;
17658;SDS011;8948;51.534;8.262;2022-11-14T05:03:11;7.73;;;5.00;;
17658;SDS011;8948;51.534;8.262;2022-11-14T05:08:11;8.27;;;4.70;;
17658;SDS011;8948;51.534;8.262;2022-11-14T05:13:12;6.67;;;4.80;;
17658;SDS011;8948;51.534;8.262;2022-11-14T05:18:13;9.13;;;5.93;;
17658;SDS011;8948;51.534;8.262;2022-11-14T05:23:20;8.67;;;5.90;;
17658;SDS011;8948;51.534;8.262;2022-11-14T05:28:22;9.67;;;6.23;;
17658;SDS011;8948;51.534;8.262;2022-11-14T05:33:22;9.70;;;5.67;;
17658;SDS011;8948;51.534;8.262;2022-11-14T05:38:23;9.47;;;6.40;;
17658;SDS011;8948;51.534;8.262;2022-11-14T05:43:23;8.70;;;6.30;;
17658;SDS011;8948;51.534;8.262;2022-11-14T05:48:24;10.27;;;7.27;;
17658;SDS011;8948;51.534;8.262;2022-11-14T05:53:25;15.00;;;8.13;;
17658;SDS011;8948;51.534;8.262;2022-11-14T05:58:27;12.97;;;7.13;;
17658;SDS011;8948;51.534;8.262;2022-11-14T06:03:32;12.97;;;7.30;;
17658;SDS011;8948;51.534;8.262;2022-11-14T06:08:33;10.97;;;6.60;;
17658;SDS011;8948;51.534;8.262;2022-11-14T06:13:34;12.70;;;8.07;;
17658;SDS011;8948;51.534;8.262;2022-11-14T06:18:35;14.37;;;8.80;;
17658;SDS011;8948;51.534;8.262;2022-11-14T06:23:37;14.40;;;8.20;;
17658;SDS011;8948;51.534;8.262;2022-11-14T06:28:38;17.33;;;8.70;;
17658;SDS011;8948;51.534;8.262;2022-11-14T06:33:38;16.40;;;8.20;;
17658;SDS011;8948;51.534;8.262;2022-11-14T06:38:39;13.13;;;8.17;;
17658;SDS011;8948;51.534;8.262;2022-11-14T06:43:42;14.13;;;7.20;;
17658;SDS011;8948;51.534;8.262;2022-11-14T06:48:47;16.53;;;8.77;;
17658;SDS011;8948;51.534;8.262;2022-11-14T06:53:49;16.20;;;8.00;;
17658;SDS011;8948;51.534;8.262;2022-11-14T06:58:49;16.23;;;8.60;;
17658;SDS011;8948;51.534;8.262;2022-11-14T07:03:50;13.73;;;6.77;;
17658;SDS011;8948;51.534;8.262;2022-11-14T07:08:51;14.33;;;7.73;;
17658;SDS011;8948;51.534;8.262;2022-11-14T07:13:53;12.60;;;7.80;;
17658;SDS011;8948;51.534;8.262;2022-11-14T07:18:55;12.33;;;8.03;;
17658;SDS011;8948;51.534;8.262;2022-11-14T07:23:57;17.60;;;9.20;;
17658;SDS011;8948;51.534;8.262;2022-11-14T07:28:57;14.80;;;8.83;;
17658;SDS011;8948;51.534;8.262;2022-11-14T07:33:58;13.27;;;8.13;;
17658;SDS011;8948;51.534;8.262;2022-11-14T07:38:58;13.97;;;8.40;;
17658;SDS011;8948;51.534;8.262;2022-11-14T07:43:59;11.63;;;7.37;;
17658;SDS011;8948;51.534;8.262;2022-11-14T07:48:59;10.93;;;7.40;;
17658;SDS011;8948;51.534;8.262;2022-11-14T07:54:00;12.90;;;7.47;;
17658;SDS011;8948;51.534;8.262;2022-11-14T07:59:01;20.37;;;7.87;;
17658;SDS011;8948;51.534;8.262;2022-11-14T08:04:01;16.57;;;7.43;;
17658;SDS011;8948;51.534;8.262;2022-11-14T08:09:02;17.43;;;8.27;;
17658;SDS011;8948;51.534;8.262;2022-11-14T08:14:02;24.90;;;12.40;;
17658;SDS011;8948;51.534;8.262;2022-11-14T08:19:03;15.67;;;10.30;;
17658;SDS011;8948;51.534;8.262;2022-11-14T08:24:04;15.47;;;8.83;;
17658;SDS011;8948;51.534;8.262;2022-11-14T08:29:05;14.33;;;7.20;;
17658;SDS011;8948;51.534;8.262;2022-11-14T08:34:05;11.90;;;7.27;;
17658;SDS011;8948;51.534;8.262;2022-11-14T08:39:06;13.23;;;7.47;;
17658;SDS011;8948;51.534;8.262;2022-11-14T08:44:06;11.63;;;6.93;;
17658;SDS011;8948;51.534;8.262;2022-11-14T08:49:07;15.97;;;7.97;;
17658;SDS011;8948;51.534;8.262;2022-11-14T08:54:08;11.67;;;8.10;;
17658;SDS011;8948;51.534;8.262;2022-11-14T08:59:08;10.37;;;7.17;;
17658;SDS011;8948;51.534;8.262;2022-11-14T09:04:09;12.97;;;7.80;;
17658;SDS011;8948;51.534;8.262;2022-11-14T09:09:09;10.80;;;6.60;;
17658;SDS011;8948;51.534;8.262;2022-11-14T09:14:10;12.97;;;7.47;;
17658;SDS011;8948;51.534;8.262;2022-11-14T09:19:10;15.70;;;8.23;;
17658;SDS011;8948;51.534;8.262;2022-11-14T09:24:11;12.20;;;7.97;;
17658;SDS011;8948;51.534;8.262;2022-11-14T09:29:11;14.87;;;9.33;;
17658;SDS011;8948;51.534;8.262;2022-11-14T09:34:12;20.83;;;9.40;;
17658;SDS011;8948;51.534;8.262;2022-11-14T09:39:13;12.37;;;8.67;;
17658;SDS011;8948;51.534;8.262;2022-11-14T09:44:23;14.23;;;9.17;;
17658;SDS011;8948;51.534;8.262;2022-11-14T09:49:36;17.03;;;8.43;;
17658;SDS011;8948;51.534;8.262;2022-11-14T09:54:41;14.73;;;8.63;;
17658;SDS011;8948;51.534;8.262;2022-11-14T09:59:49;14.83;;;9.33;;
17658;SDS011;8948;51.534;8.262;2022-11-14T10:15:25;12.23;;;8.30;;
17658;SDS011;8948;51.534;8.262;2022-11-14T10:42:06;17.10;;;11.77;;
17658;SDS011;8948;51.534;8.262;2022-11-14T10:47:13;19.30;;;12.27;;
17658;SDS011;8948;51.534;8.262;2022-11-14T10:52:19;15.93;;;9.70;;
17658;SDS011;8948;51.534;8.262;2022-11-14T10:57:24;16.70;;;9.77;;
17658;SDS011;8948;51.534;8.262;2022-11-14T11:02:24;12.73;;;8.17;;
17658;SDS011;8948;51.534;8.262;2022-11-14T11:07:25;12.43;;;8.20;;
17658;SDS011;8948;51.534;8.262;2022-11-14T11:12:45;11.90;;;7.93;;
17658;SDS011;8948;51.534;8.262;2022-11-14T11:17:52;11.90;;;7.57;;
17658;SDS011;8948;51.534;8.262;2022-11-14T11:23:13;12.23;;;7.93;;
17658;SDS011;8948;51.534;8.262;2022-11-14T11:28:19;13.03;;;7.13;;
17658;SDS011;8948;51.534;8.262;2022-11-14T11:38:24;10.97;;;6.90;;
17658;SDS011;8948;51.534;8.262;2022-11-14T11:43:32;17.63;;;7.93;;
17658;SDS011;8948;51.534;8.262;2022-11-14T11:48:41;11.90;;;7.80;;
17658;SDS011;8948;51.534;8.262;2022-11-14T11:53:43;12.90;;;8.07;;
17658;SDS011;8948;51.534;8.262;2022-11-14T11:58:50;12.57;;;7.97;;
17658;SDS011;8948;51.534;8.262;2022-11-14T12:03:55;13.43;;;9.07;;
17658;SDS011;8948;51.534;8.262;2022-11-14T12:09:09;19.33;;;8.90;;
17658;SDS011;8948;51.534;8.262;2022-11-14T12:35:16;11.32;;;7.10;;
17658;SDS011;8948;51.534;8.262;2022-11-14T12:40:37;10.75;;;7.22;;
17658;SDS011;8948;51.534;8.262;2022-11-14T12:50:42;15.35;;;8.43;;
17658;SDS011;8948;51.534;8.262;2022-11-14T13:11:38;15.07;;;9.05;;
17658;SDS011;8948;51.534;8.262;2022-11-14T13:22:35;12.10;;;7.07;;
17658;SDS011;8948;51.534;8.262;2022-11-14T13:27:37;15.07;;;9.65;;
17658;SDS011;8948;51.534;8.262;2022-11-14T13:53:12;8.48;;;5.47;;
17658;SDS011;8948;51.534;8.262;2022-11-14T14:03:24;8.80;;;5.57;;
17658;SDS011;8948;51.534;8.262;2022-11-14T14:08:40;13.45;;;7.22;;
17658;SDS011;8948;51.534;8.262;2022-11-14T14:14:02;12.57;;;6.90;;
17658;SDS011;8948;51.534;8.262;2022-11-14T14:40:32;12.83;;;6.87;;
17658;SDS011;8948;51.534;8.262;2022-11-14T14:45:44;15.43;;;7.70;;
17658;SDS011;8948;51.534;8.262;2022-11-14T14:50:51;11.83;;;7.53;;
17658;SDS011;8948;51.534;8.262;2022-11-14T15:01:12;12.13;;;8.13;;
17658;SDS011;8948;51.534;8.262;2022-11-14T15:06:27;15.93;;;7.73;;
17658;SDS011;8948;51.534;8.262;2022-11-14T15:11:31;17.60;;;8.63;;
17658;SDS011;8948;51.534;8.262;2022-11-14T15:16:33;13.40;;;8.57;;
17658;SDS011;8948;51.534;8.262;2022-11-14T15:21:34;15.20;;;8.50;;
17658;SDS011;8948;51.534;8.262;2022-11-14T15:26:34;29.97;;;23.50;;
17658;SDS011;8948;51.534;8.262;2022-11-14T15:31:35;16.90;;;9.07;;
17658;SDS011;8948;51.534;8.262;2022-11-14T15:36:36;14.87;;;8.13;;
17658;SDS011;8948;51.534;8.262;2022-11-14T15:47:33;18.50;;;11.03;;
17658;SDS011;8948;51.534;8.262;2022-11-14T15:52:48;19.50;;;11.50;;
17658;SDS011;8948;51.534;8.262;2022-11-14T15:57:54;22.40;;;10.63;;
17658;SDS011;8948;51.534;8.262;2022-11-14T16:02:55;14.63;;;8.77;;
17658;SDS011;8948;51.534;8.262;2022-11-14T16:07:56;12.87;;;8.10;;
17658;SDS011;8948;51.534;8.262;2022-11-14T16:12:57;13.33;;;7.97;;
17658;SDS011;8948;51.534;8.262;2022-11-14T16:17:57;14.17;;;7.97;;
17658;SDS011;8948;51.534;8.262;2022-11-14T16:22:58;14.20;;;8.40;;
17658;SDS011;8948;51.534;8.262;2022-11-14T16:27:58;11.47;;;7.37;;
17658;SDS011;8948;51.534;8.262;2022-11-14T16:32:59;14.43;;;8.17;;
17658;SDS011;8948;51.534;8.262;2022-11-14T16:37:59;11.93;;;7.00;;
17658;SDS011;8948;51.534;8.262;2022-11-14T16:43:00;20.33;;;10.23;;
17658;SDS011;8948;51.534;8.262;2022-11-14T16:48:02;13.47;;;7.80;;
17658;SDS011;8948;51.534;8.262;2022-11-14T16:53:02;9.90;;;7.30;;
17658;SDS011;8948;51.534;8.262;2022-11-14T16:58:03;19.07;;;11.07;;
17658;SDS011;8948;51.534;8.262;2022-11-14T17:03:04;15.00;;;8.63;;
17658;SDS011;8948;51.534;8.262;2022-11-14T17:08:04;13.77;;;7.53;;
17658;SDS011;8948;51.534;8.262;2022-11-14T17:13:06;21.50;;;12.23;;
17658;SDS011;8948;51.534;8.262;2022-11-14T17:18:07;15.70;;;8.40;;
17658;SDS011;8948;51.534;8.262;2022-11-14T17:23:08;12.13;;;8.40;;
17658;SDS011;8948;51.534;8.262;2022-11-14T17:28:08;10.47;;;7.50;;
17658;SDS011;8948;51.534;8.262;2022-11-14T17:33:09;13.10;;;7.20;;
17658;SDS011;8948;51.534;8.262;2022-11-14T17:38:10;13.00;;;8.30;;
17658;SDS011;8948;51.534;8.262;2022-11-14T17:43:10;20.63;;;10.80;;
17658;SDS011;8948;51.534;8.262;2022-11-14T17:48:13;23.00;;;12.83;;
17658;SDS011;8948;51.534;8.262;2022-11-14T17:53:13;12.73;;;7.10;;
17658;SDS011;8948;51.534;8.262;2022-11-14T17:58:14;15.53;;;8.17;;
17658;SDS011;8948;51.534;8.262;2022-11-14T18:03:14;11.33;;;6.37;;
17658;SDS011;8948;51.534;8.262;2022-11-14T18:08:15;8.53;;;6.23;;
17658;SDS011;8948;51.534;8.262;2022-11-14T18:13:15;14.67;;;6.87;;
17658;SDS011;8948;51.534;8.262;2022-11-14T18:18:16;9.17;;;6.23;;
17658;SDS011;8948;51.534;8.262;2022-11-14T18:23:18;9.03;;;6.30;;
17658;SDS011;8948;51.534;8.262;2022-11-14T18:28:18;7.37;;;5.60;;
17658;SDS011;8948;51.534;8.262;2022-11-14T18:33:19;7.83;;;5.70;;
17658;SDS011;8948;51.534;8.262;2022-11-14T18:38:20;8.10;;;5.90;;
17658;SDS011;8948;51.534;8.262;2022-11-14T18:43:21;9.57;;;5.90;;
17658;SDS011;8948;51.534;8.262;2022-11-14T18:48:21;8.40;;;5.97;;
17658;SDS011;8948;51.534;8.262;2022-11-14T18:53:22;8.00;;;6.23;;
17658;SDS011;8948;51.534;8.262;2022-11-14T18:58:22;10.20;;;5.70;;
17658;SDS011;8948;51.534;8.262;2022-11-14T19:03:23;9.07;;;5.43;;
17658;SDS011;8948;51.534;8.262;2022-11-14T19:08:24;10.47;;;5.43;;
17658;SDS011;8948;51.534;8.262;2022-11-14T19:13:24;9.17;;;5.20;;
17658;SDS011;8948;51.534;8.262;2022-11-14T19:18:25;7.17;;;5.33;;
17658;SDS011;8948;51.534;8.262;2022-11-14T19:23:25;8.73;;;6.10;;
17658;SDS011;8948;51.534;8.262;2022-11-14T19:28:27;11.17;;;6.43;;
17658;SDS011;8948;51.534;8.262;2022-11-14T19:33:30;9.10;;;6.20;;
17658;SDS011;8948;51.534;8.262;2022-11-14T19:38:32;11.53;;;7.63;;
17658;SDS011;8948;51.534;8.262;2022-11-14T19:43:32;10.03;;;5.90;;
17658;SDS011;8948;51.534;8.262;2022-11-14T19:48:33;10.47;;;6.83;;
17658;SDS011;8948;51.534;8.262;2022-11-14T19:53:36;11.67;;;7.00;;
17658;SDS011;8948;51.534;8.262;2022-11-14T19:58:37;11.20;;;7.57;;
17658;SDS011;8948;51.534;8.262;2022-11-14T20:03:39;10.67;;;7.13;;
17658;SDS011;8948;51.534;8.262;2022-11-14T20:08:40;11.77;;;8.13;;
17658;SDS011;8948;51.534;8.262;2022-11-14T20:13:41;12.67;;;7.73;;
17658;SDS011;8948;51.534;8.262;2022-11-14T20:18:43;11.87;;;7.87;;
17658;SDS011;8948;51.534;8.262;2022-11-14T20:23:44;12.33;;;7.10;;
17658;SDS011;8948;51.534;8.262;2022-11-14T20:28:46;10.07;;;7.20;;
17658;SDS011;8948;51.534;8.262;2022-11-14T20:33:49;12.83;;;7.20;;
17658;SDS011;8948;51.534;8.262;2022-11-14T20:38:51;11.13;;;7.07;;
17658;SDS011;8948;51.534;8.262;2022-11-14T20:43:52;10.97;;;7.33;;
17658;SDS011;8948;51.534;8.262;2022-11-14T20:48:53;12.33;;;7.07;;
17658;SDS011;8948;51.534;8.262;2022-11-14T20:53:54;8.97;;;6.40;;
17658;SDS011;8948;51.534;8.262;2022-11-14T20:58:54;9.93;;;6.77;;
17658;SDS011;8948;51.534;8.262;2022-11-14T21:03:55;11.07;;;6.77;;
17658;SDS011;8948;51.534;8.262;2022-11-14T21:08:56;10.13;;;6.60;;
17658;SDS011;8948;51.534;8.262;2022-11-14T21:13:56;10.70;;;6.63;;
17658;SDS011;8948;51.534;8.262;2022-11-14T21:18:58;9.97;;;6.23;;
17658;SDS011;8948;51.534;8.262;2022-11-14T21:23:59;9.53;;;6.70;;
17658;SDS011;8948;51.534;8.262;2022-11-14T21:29:03;11.17;;;7.07;;
17658;SDS011;8948;51.534;8.262;2022-11-14T21:34:06;9.23;;;6.23;;
17658;SDS011;8948;51.534;8.262;2022-11-14T21:39:10;10.77;;;7.27;;
17658;SDS011;8948;51.534;8.262;2022-11-14T21:44:13;10.83;;;6.77;;
17658;SDS011;8948;51.534;8.262;2022-11-14T21:49:15;11.10;;;6.67;;
17658;SDS011;8948;51.534;8.262;2022-11-14T21:54:16;10.63;;;7.07;;
17658;SDS011;8948;51.534;8.262;2022-11-14T21:59:16;11.17;;;6.83;;
17658;SDS011;8948;51.534;8.262;2022-11-14T22:04:20;10.10;;;6.63;;
17658;SDS011;8948;51.534;8.262;2022-11-14T22:09:21;11.27;;;6.70;;
17658;SDS011;8948;51.534;8.262;2022-11-14T22:14:22;11.37;;;6.53;;
17658;SDS011;8948;51.534;8.262;2022-11-14T22:19:22;10.73;;;6.63;;
17658;SDS011;8948;51.534;8.262;2022-11-14T22:24:23;12.63;;;6.83;;
17658;SDS011;8948;51.534;8.262;2022-11-14T22:29:24;11.30;;;6.80;;
17658;SDS011;8948;51.534;8.262;2022-11-14T22:34:24;10.73;;;6.97;;
17658;SDS011;8948;51.534;8.262;2022-11-14T22:39:25;11.03;;;7.07;;
17658;SDS011;8948;51.534;8.262;2022-11-14T22:44:25;10.93;;;6.93;;
17658;SDS011;8948;51.534;8.262;2022-11-14T22:49:26;13.30;;;6.67;;
17658;SDS011;8948;51.534;8.262;2022-11-14T22:54:26;14.57;;;7.30;;
17658;SDS011;8948;51.534;8.262;2022-11-14T22:59:27;12.90;;;6.87;;
17658;SDS011;8948;51.534;8.262;2022-11-14T23:04:27;10.33;;;7.00;;
17658;SDS011;8948;51.534;8.262;2022-11-14T23:09:29;11.90;;;6.77;;
17658;SDS011;8948;51.534;8.262;2022-11-14T23:14:29;10.53;;;6.80;;
17658;SDS011;8948;51.534;8.262;2022-11-14T23:19:30;12.97;;;6.70;;
17658;SDS011;8948;51.534;8.262;2022-11-14T23:24:30;10.57;;;6.93;;
17658;SDS011;8948;51.534;8.262;2022-11-14T23:29:31;12.70;;;6.60;;
17658;SDS011;8948;51.534;8.262;2022-11-14T23:34:31;14.73;;;7.87;;
17658;SDS011;8948;51.534;8.262;2022-11-14T23:39:32;15.70;;;7.90;;
17658;SDS011;8948;51.534;8.262;2022-11-14T23:44:32;15.67;;;7.40;;
17658;SDS011;8948;51.534;8.262;2022-11-14T23:49:33;10.77;;;6.80;;
17658;SDS011;8948;51.534;8.262;2022-11-14T23:54:33;13.30;;;6.70;;
17658;SDS011;8948;51.534;8.262;2022-11-14T23:59:34;11.60;;;6.63;;
